createdAt,value
2023-05-13T00:02:25.949Z,1.20
2023-05-13T00:04:52.964Z,1.30
2023-05-13T00:07:19.900Z,1.20
2023-05-13T00:09:46.837Z,1.05
2023-05-13T00:12:13.996Z,1.30
2023-05-13T00:14:40.942Z,1.08
2023-05-13T00:17:07.863Z,1.35
2023-05-13T00:19:34.839Z,1.38
2023-05-13T00:22:01.882Z,1.25
2023-05-13T00:24:28.856Z,1.33
2023-05-13T00:26:55.825Z,1.38
2023-05-13T00:29:22.802Z,1.45
2023-05-13T00:31:49.803Z,1.35
2023-05-13T00:34:18.445Z,1.20
2023-05-13T00:36:45.648Z,1.42
2023-05-13T00:39:13.299Z,1.15
2023-05-13T00:41:40.431Z,1.55
2023-05-13T00:44:07.346Z,1.40
2023-05-13T00:46:34.449Z,1.70
2023-05-13T00:49:04.272Z,1.23
2023-05-13T00:51:32.620Z,1.60
2023-05-13T00:53:59.876Z,1.55
2023-05-13T00:56:27.129Z,1.40
2023-05-13T00:58:54.141Z,1.42
2023-05-13T01:01:37.306Z,1.30
2023-05-13T01:04:26.063Z,1.63
2023-05-13T01:07:17.157Z,1.10
2023-05-13T01:12:39.651Z,1.35
2023-05-13T01:15:10.162Z,1.40
2023-05-13T01:17:46.466Z,1.38
2023-05-13T01:20:14.305Z,1.08
2023-05-13T01:22:41.711Z,1.60
2023-05-13T01:29:40.956Z,1.13
2023-05-13T01:32:10.613Z,1.42
2023-05-13T01:34:40.698Z,1.60
2023-05-13T01:37:08.195Z,1.48
2023-05-13T01:39:38.260Z,1.45
2023-05-13T01:42:09.193Z,1.50
2023-05-13T01:44:36.303Z,1.42
2023-05-13T01:47:03.316Z,1.33
2023-05-13T01:49:30.653Z,1.67
2023-05-13T01:51:57.830Z,1.30
2023-05-13T01:54:25.824Z,1.50
2023-05-13T01:56:57.867Z,1.60
2023-05-13T01:59:24.832Z,1.10
2023-05-13T02:01:51.869Z,1.55
2023-05-13T02:04:18.818Z,1.83
2023-05-13T02:06:46.763Z,1.45
2023-05-13T02:09:14.789Z,1.38
2023-05-13T02:11:41.817Z,1.38
2023-05-13T02:14:08.844Z,1.75
2023-05-13T02:16:35.868Z,1.10
2023-05-13T02:19:06.458Z,1.27
2023-05-13T02:21:33.760Z,1.35
2023-05-13T02:24:00.908Z,1.40
2023-05-13T02:26:29.178Z,1.20
2023-05-13T02:28:56.133Z,1.13
2023-05-13T02:31:23.213Z,1.20
2023-05-13T02:33:50.181Z,1.35
2023-05-13T02:36:17.516Z,1.13
2023-05-13T02:38:44.993Z,1.20
2023-05-13T02:41:14.134Z,1.40
2023-05-13T02:43:42.448Z,1.33
2023-05-13T02:46:09.456Z,1.10
2023-05-13T02:48:36.465Z,1.52
2023-05-13T02:51:03.473Z,1.42
2023-05-13T02:53:30.724Z,1.27
2023-05-13T02:56:02.493Z,1.40
2023-05-13T02:58:29.467Z,1.13
2023-05-13T03:00:56.619Z,1.25
2023-05-13T03:03:25.103Z,1.27
2023-05-13T03:05:52.230Z,1.40
2023-05-13T03:08:19.314Z,1.55
2023-05-13T03:10:46.275Z,1.52
2023-05-13T03:13:13.339Z,1.33
2023-05-13T03:15:42.117Z,1.30
2023-05-13T03:18:10.579Z,1.40
2023-05-13T03:20:37.619Z,1.33
2023-05-13T03:23:04.983Z,1.35
2023-05-13T03:25:33.102Z,1.42
2023-05-13T03:28:00.151Z,1.48
2023-05-13T03:30:31.025Z,1.45
2023-05-13T03:33:11.565Z,1.38
2023-05-13T03:35:38.766Z,1.70
2023-05-13T03:38:05.886Z,1.77
2023-05-13T03:40:36.022Z,1.20
2023-05-13T03:43:03.155Z,1.50
2023-05-13T03:45:31.223Z,1.38
2023-05-13T03:48:02.884Z,1.42
2023-05-13T03:50:29.911Z,1.80
2023-05-13T03:52:56.910Z,1.55
2023-05-13T03:55:24.276Z,1.52
2023-05-13T03:57:51.252Z,1.50
2023-05-13T04:00:21.134Z,1.90
2023-05-13T04:02:49.271Z,1.63
2023-05-13T04:05:17.623Z,1.40
2023-05-13T04:07:46.400Z,1.73
2023-05-13T04:10:15.406Z,1.60
2023-05-13T04:12:42.689Z,1.73
2023-05-13T04:15:10.244Z,1.77
2023-05-13T04:17:37.210Z,1.67
2023-05-13T04:20:04.693Z,1.90
2023-05-13T04:22:31.760Z,1.98
2023-05-13T04:24:58.687Z,1.88
2023-05-13T04:27:25.772Z,1.45
2023-05-13T04:30:06.708Z,1.53
2023-05-13T04:32:35.175Z,1.90
2023-05-13T04:35:02.726Z,1.70
2023-05-13T04:37:31.728Z,1.83
2023-05-13T04:40:02.837Z,1.65
2023-05-13T04:42:29.866Z,2.00
2023-05-13T04:44:56.979Z,1.65
2023-05-13T04:47:24.038Z,1.65
2023-05-13T04:49:51.006Z,1.90
2023-05-13T04:52:19.454Z,1.85
2023-05-13T04:54:46.385Z,1.67
2023-05-13T04:57:13.456Z,2.10
2023-05-13T04:59:40.540Z,1.75
2023-05-13T05:02:08.703Z,1.50
2023-05-13T05:04:35.768Z,1.52
2023-05-13T05:07:06.869Z,1.70
2023-05-13T05:09:34.051Z,1.70
2023-05-13T05:12:01.050Z,1.77
2023-05-13T05:14:31.732Z,1.63
2023-05-13T05:16:59.354Z,1.52
2023-05-13T05:19:26.482Z,1.70
2023-05-13T05:21:54.942Z,1.63
2023-05-13T05:24:21.901Z,1.50
2023-05-13T05:26:48.953Z,1.73
2023-05-13T05:29:17.892Z,1.75
2023-05-13T05:31:45.388Z,1.58
2023-05-13T05:34:12.421Z,1.48
2023-05-13T05:36:39.566Z,2.00
2023-05-13T05:39:06.857Z,2.00
2023-05-13T05:41:36.496Z,1.92
2023-05-13T05:44:03.493Z,1.98
2023-05-13T05:46:31.731Z,1.73
2023-05-13T05:48:59.849Z,1.65
2023-05-13T05:51:26.814Z,1.90
2023-05-13T05:53:54.200Z,2.03
2023-05-13T05:56:21.698Z,1.55
2023-05-13T05:58:48.703Z,1.70
2023-05-13T06:01:16.792Z,1.73
2023-05-13T06:03:45.749Z,1.73
2023-05-13T06:06:12.936Z,1.70
2023-05-13T06:08:40.233Z,1.67
2023-05-13T06:11:08.205Z,1.90
2023-05-13T06:13:35.273Z,1.50
2023-05-13T06:16:02.308Z,1.63
2023-05-13T06:18:29.379Z,1.60
2023-05-13T06:20:56.378Z,2.00
2023-05-13T06:23:23.348Z,1.60
2023-05-13T06:25:51.864Z,1.67
2023-05-13T06:28:18.944Z,1.60
2023-05-13T06:30:46.016Z,1.55
2023-05-13T06:33:13.174Z,1.70
2023-05-13T06:35:40.213Z,1.58
2023-05-13T06:38:08.611Z,1.65
2023-05-13T06:40:36.106Z,1.67
2023-05-13T06:43:03.401Z,1.90
2023-05-13T06:45:32.104Z,1.63
2023-05-13T06:47:59.545Z,1.73
2023-05-13T06:50:26.672Z,1.60
2023-05-13T06:52:53.630Z,2.08
2023-05-13T06:55:21.579Z,1.95
2023-05-13T06:57:48.561Z,1.92
2023-05-13T07:00:16.412Z,1.88
2023-05-13T07:02:43.406Z,1.38
2023-05-13T07:05:12.318Z,1.30
2023-05-13T07:07:39.299Z,2.05
2023-05-13T07:10:06.575Z,1.60
2023-05-13T07:12:33.592Z,1.42
2023-05-13T07:15:00.592Z,1.60
2023-05-13T07:17:27.597Z,1.63
2023-05-13T07:19:54.731Z,1.58
2023-05-13T07:22:21.705Z,1.50
2023-05-13T07:24:48.827Z,1.67
2023-05-13T07:27:15.781Z,1.42
2023-05-13T07:29:42.867Z,1.73
2023-05-13T07:32:09.795Z,1.60
2023-05-13T07:34:37.219Z,1.85
2023-05-13T07:37:04.694Z,1.77
2023-05-13T07:39:31.616Z,1.70
2023-05-13T07:41:58.688Z,1.60
2023-05-13T07:44:25.991Z,1.50
2023-05-13T07:46:53.650Z,1.70
2023-05-13T07:49:21.678Z,1.58
2023-05-13T07:51:48.788Z,1.65
2023-05-13T07:54:15.792Z,1.48
2023-05-13T07:56:44.201Z,1.60
2023-05-13T07:59:11.232Z,1.48
2023-05-13T08:01:38.302Z,1.58
2023-05-13T08:04:05.517Z,1.70
2023-05-13T08:06:33.022Z,1.48
2023-05-13T08:09:01.269Z,1.60
2023-05-13T08:11:29.252Z,1.60
2023-05-13T08:13:56.198Z,1.55
2023-05-13T08:16:23.269Z,1.67
2023-05-13T08:18:50.251Z,1.67
2023-05-13T08:21:17.214Z,1.52
2023-05-13T08:23:45.872Z,1.58
2023-05-13T08:26:13.749Z,1.80
2023-05-13T08:28:42.327Z,1.58
2023-05-13T08:31:14.727Z,1.77
2023-05-13T08:33:42.594Z,2.15
2023-05-13T08:36:09.808Z,1.27
2023-05-13T08:38:36.734Z,1.70
2023-05-13T08:41:07.725Z,1.70
2023-05-13T08:43:38.016Z,1.60
2023-05-13T08:46:11.936Z,1.30
2023-05-13T08:48:40.930Z,1.23
2023-05-13T08:51:09.360Z,1.58
2023-05-13T08:53:39.037Z,1.55
2023-05-13T08:56:08.121Z,1.27
2023-05-13T08:58:35.196Z,1.10
2023-05-13T09:01:04.041Z,1.20
2023-05-13T09:03:32.387Z,1.38
2023-05-13T09:06:02.872Z,1.35
2023-05-13T09:08:30.203Z,1.40
2023-05-13T09:10:57.746Z,1.60
2023-05-13T09:13:24.718Z,1.50
2023-05-13T09:15:51.874Z,1.30
2023-05-13T09:18:19.483Z,1.30
2023-05-13T09:20:46.826Z,1.30
2023-05-13T09:23:15.800Z,1.13
2023-05-13T09:25:43.505Z,1.27
2023-05-13T09:28:15.087Z,1.30
2023-05-13T09:30:45.676Z,1.13
2023-05-13T09:33:16.498Z,1.30
2023-05-13T09:35:53.621Z,1.33
2023-05-13T09:38:38.405Z,1.40
2023-05-13T09:41:05.775Z,1.35
2023-05-13T09:43:33.816Z,1.38
2023-05-13T09:46:05.354Z,1.10
2023-05-13T09:48:34.291Z,1.15
2023-05-13T09:51:01.394Z,1.30
2023-05-13T09:53:29.060Z,1.27
2023-05-13T09:55:58.640Z,1.08
2023-05-13T09:58:30.712Z,1.08
2023-05-13T10:00:58.082Z,1.30
2023-05-13T10:03:25.600Z,1.50
2023-05-13T10:05:59.843Z,0.90
2023-05-13T10:08:29.287Z,1.02
2023-05-13T10:10:56.895Z,1.20
2023-05-13T10:13:25.387Z,1.50
2023-05-13T10:15:54.781Z,1.40
2023-05-13T10:18:26.170Z,1.42
2023-05-13T10:20:54.076Z,1.27
2023-05-13T10:23:23.731Z,1.50
2023-05-13T10:25:52.990Z,1.20
2023-05-13T10:28:20.718Z,1.10
2023-05-13T10:30:51.356Z,1.10
2023-05-13T10:33:18.872Z,1.33
2023-05-13T10:36:11.742Z,1.33
2023-05-13T10:39:16.512Z,1.10
2023-05-13T10:42:08.124Z,1.30
2023-05-13T10:44:36.110Z,1.30
2023-05-13T10:47:03.304Z,1.30
2023-05-13T10:49:34.899Z,1.23
2023-05-13T10:52:06.106Z,1.25
2023-05-13T10:54:41.948Z,1.20
2023-05-13T10:57:09.614Z,1.30
2023-05-13T10:59:38.601Z,1.15
2023-05-13T11:02:25.148Z,1.40
2023-05-13T11:05:00.428Z,1.15
2023-05-13T11:07:30.654Z,1.10
2023-05-13T11:09:59.344Z,1.30
2023-05-13T11:12:26.271Z,1.23
2023-05-13T11:14:56.271Z,1.23
2023-05-13T11:17:23.370Z,1.00
2023-05-13T11:19:52.280Z,1.05
2023-05-13T11:22:27.628Z,1.23
2023-05-13T11:25:10.633Z,1.00
2023-05-13T11:27:42.853Z,1.05
2023-05-13T11:30:25.842Z,1.20
2023-05-13T11:32:56.495Z,1.55
2023-05-13T11:35:28.497Z,1.20
2023-05-13T11:37:59.683Z,1.10
2023-05-13T11:40:35.317Z,1.00
2023-05-13T11:43:04.841Z,1.20
2023-05-13T11:45:33.276Z,0.82
2023-05-13T11:48:22.139Z,1.20
2023-05-13T11:50:51.907Z,1.10
2023-05-13T11:53:22.972Z,1.10
2023-05-13T11:55:50.125Z,1.00
2023-05-13T11:58:17.358Z,0.90
2023-05-13T12:00:46.517Z,1.10
2023-05-13T12:03:16.005Z,1.33
2023-05-13T12:05:44.350Z,1.20
2023-05-13T12:08:11.826Z,0.85
2023-05-13T12:10:45.004Z,1.38
2023-05-13T12:13:12.427Z,0.93
2023-05-13T12:15:39.901Z,0.98
2023-05-13T12:18:08.094Z,1.25
2023-05-13T12:20:35.512Z,1.00
2023-05-13T12:23:02.807Z,1.00
2023-05-13T12:25:46.610Z,0.95
2023-05-13T12:28:23.306Z,1.00
2023-05-13T12:31:01.261Z,0.90
2023-05-13T12:33:40.580Z,1.00
2023-05-13T12:36:31.997Z,0.93
2023-05-13T12:39:10.166Z,1.20
2023-05-13T12:41:54.523Z,1.05
2023-05-13T12:44:21.618Z,0.85
2023-05-13T12:46:54.145Z,1.02
2023-05-13T12:49:22.234Z,0.88
2023-05-13T12:51:51.591Z,1.00
2023-05-13T12:54:18.985Z,1.13
2023-05-13T12:56:46.089Z,1.08
2023-05-13T12:59:14.321Z,0.93
2023-05-13T13:01:42.771Z,1.05
2023-05-13T13:04:10.210Z,1.00
2023-05-13T13:06:37.390Z,1.02
2023-05-13T13:09:05.205Z,0.90
2023-05-13T13:11:32.134Z,1.05
2023-05-13T13:13:59.085Z,0.90
2023-05-13T13:16:26.111Z,0.73
2023-05-13T13:18:55.790Z,0.90
2023-05-13T13:21:23.093Z,0.90
2023-05-13T13:23:50.037Z,0.90
2023-05-13T13:26:17.008Z,1.23
2023-05-13T13:28:43.994Z,0.80
2023-05-13T13:31:12.014Z,1.13
2023-05-13T13:33:38.960Z,0.75
2023-05-13T13:36:06.275Z,0.70
2023-05-13T13:38:33.268Z,0.95
2023-05-13T13:41:00.193Z,0.80
2023-05-13T13:43:27.822Z,1.05
2023-05-13T13:45:54.760Z,1.00
2023-05-13T13:48:21.781Z,0.90
2023-05-13T13:50:49.896Z,1.08
2023-05-13T13:53:18.480Z,1.00
2023-05-13T13:55:45.691Z,1.10
2023-05-13T13:58:12.717Z,1.10
2023-05-13T14:00:39.725Z,1.23
2023-05-13T14:03:06.702Z,1.08
2023-05-13T14:05:33.731Z,1.20
2023-05-13T14:08:00.761Z,2.33
2023-05-13T14:10:27.778Z,1.75
2023-05-13T14:12:54.715Z,1.40
2023-05-13T14:15:21.623Z,1.20
2023-05-13T14:17:48.618Z,1.55
2023-05-13T14:20:15.967Z,1.13
2023-05-13T14:22:42.969Z,1.00
2023-05-13T14:25:10.143Z,1.10
2023-05-13T14:27:37.188Z,1.02
2023-05-13T14:30:07.129Z,1.20
2023-05-13T14:32:34.693Z,1.15
2023-05-13T14:35:01.660Z,0.80
2023-05-13T14:37:28.635Z,1.00
2023-05-13T14:39:56.252Z,1.20
2023-05-13T14:42:23.175Z,1.20
2023-05-13T14:44:50.275Z,1.10
2023-05-13T14:47:17.478Z,1.13
2023-05-13T14:49:44.430Z,1.05
2023-05-13T14:52:11.380Z,0.98
2023-05-13T14:54:38.321Z,1.15
2023-05-13T14:57:07.109Z,1.00
2023-05-13T14:59:34.606Z,1.10
2023-05-13T15:02:03.297Z,0.80
2023-05-13T15:04:30.539Z,0.88
2023-05-13T15:06:58.179Z,0.90
2023-05-13T15:09:25.228Z,0.85
2023-05-13T15:11:52.256Z,0.90
2023-05-13T15:14:20.932Z,0.77
2023-05-13T15:16:47.902Z,0.93
2023-05-13T15:19:14.987Z,0.77
2023-05-13T15:21:42.124Z,0.80
2023-05-13T15:24:09.097Z,0.80
2023-05-13T15:26:36.156Z,0.73
2023-05-13T15:29:03.285Z,0.85
2023-05-13T15:31:31.677Z,0.70
2023-05-13T15:33:59.444Z,0.80
2023-05-13T15:36:26.451Z,1.10
2023-05-13T15:38:53.379Z,0.88
2023-05-13T15:41:20.295Z,0.80
2023-05-13T15:43:47.261Z,1.00
2023-05-13T15:46:14.359Z,0.80
2023-05-13T15:48:41.516Z,0.75
2023-05-13T15:51:08.462Z,0.70
2023-05-13T15:53:35.479Z,0.80
2023-05-13T15:56:02.455Z,0.90
2023-05-13T15:58:29.381Z,0.63
2023-05-13T16:00:56.302Z,0.90
2023-05-13T16:03:23.282Z,0.63
2023-05-13T16:05:51.154Z,0.60
2023-05-13T16:08:18.595Z,0.77
2023-05-13T16:10:45.645Z,0.80
2023-05-13T16:13:12.618Z,0.90
2023-05-13T16:15:39.574Z,0.85
2023-05-13T16:18:07.038Z,0.85
2023-05-13T16:20:34.035Z,0.90
2023-05-13T16:23:00.959Z,0.90
2023-05-13T16:25:27.911Z,0.65
2023-05-13T16:27:56.511Z,0.70
2023-05-13T16:30:23.910Z,0.80
2023-05-13T16:32:54.367Z,0.60
2023-05-13T16:35:22.420Z,0.73
2023-05-13T16:37:50.555Z,0.60
2023-05-13T16:40:17.553Z,0.63
2023-05-13T16:42:46.231Z,0.57
2023-05-13T16:45:13.264Z,0.73
2023-05-13T16:47:40.285Z,0.70
2023-05-13T16:50:08.519Z,0.90
2023-05-13T16:52:35.708Z,0.98
2023-05-13T16:55:03.030Z,0.60
2023-05-13T16:57:30.133Z,0.57
2023-05-13T16:59:57.102Z,0.70
2023-05-13T17:02:24.448Z,0.50
2023-05-13T17:04:51.500Z,0.68
2023-05-13T17:07:19.400Z,0.70
2023-05-13T17:09:46.465Z,0.52
2023-05-13T17:12:13.493Z,0.68
2023-05-13T17:14:40.538Z,0.60
2023-05-13T17:17:07.548Z,0.80
2023-05-13T17:19:34.828Z,0.85
2023-05-13T17:22:01.770Z,0.63
2023-05-13T17:24:31.631Z,0.60
2023-05-13T17:29:25.756Z,0.60
2023-05-13T17:31:52.929Z,0.70
2023-05-13T17:34:20.229Z,0.60
2023-05-13T17:36:49.356Z,0.63
2023-05-13T17:39:17.108Z,0.98
2023-05-13T17:41:44.058Z,0.85
2023-05-13T17:44:11.079Z,0.68
2023-05-13T17:46:38.098Z,0.52
2023-05-13T17:49:05.748Z,0.73
2023-05-13T17:51:32.855Z,0.68
2023-05-13T17:53:59.977Z,0.60
2023-05-13T17:56:26.989Z,0.47
2023-05-13T17:58:53.916Z,0.70
2023-05-13T18:01:21.747Z,0.82
2023-05-13T18:03:48.870Z,0.55
2023-05-13T18:06:16.086Z,0.47
2023-05-13T18:08:43.244Z,0.73
2023-05-13T18:11:10.294Z,0.70
2023-05-13T18:13:37.296Z,0.60
2023-05-13T18:16:05.978Z,0.63
2023-05-13T18:18:36.942Z,0.60
2023-05-13T18:21:06.900Z,0.90
2023-05-13T18:23:34.906Z,0.80
2023-05-13T18:26:02.274Z,0.68
2023-05-13T18:28:31.746Z,0.90
2023-05-13T18:30:58.819Z,0.60
2023-05-13T18:33:29.800Z,0.65
2023-05-13T18:35:57.268Z,0.80
2023-05-13T18:38:24.201Z,0.82
2023-05-13T18:40:51.177Z,0.60
2023-05-13T18:43:18.153Z,0.90
2023-05-13T18:45:45.320Z,0.80
2023-05-13T18:48:12.368Z,0.63
2023-05-13T18:50:42.395Z,0.70
2023-05-13T18:53:09.577Z,0.63
2023-05-13T18:55:39.956Z,0.70
2023-05-13T19:00:34.091Z,0.57
2023-05-13T19:03:01.337Z,0.90
2023-05-13T19:05:28.580Z,0.80
2023-05-13T19:07:57.213Z,0.65
2023-05-13T19:10:24.587Z,0.77
2023-05-13T19:12:52.031Z,1.00
2023-05-13T19:15:21.164Z,0.82
2023-05-13T19:17:50.412Z,0.82
2023-05-13T19:20:17.638Z,1.08
2023-05-13T19:22:44.778Z,0.77
2023-05-13T19:25:13.033Z,0.93
2023-05-13T19:27:40.041Z,0.82
2023-05-13T19:30:08.351Z,0.90
2023-05-13T19:32:36.214Z,0.90
2023-05-13T19:35:03.694Z,0.82
2023-05-13T19:37:31.537Z,0.90
2023-05-13T19:39:58.559Z,0.93
2023-05-13T19:42:25.610Z,0.90
2023-05-13T19:44:52.603Z,0.88
2023-05-13T19:47:21.412Z,0.90
2023-05-13T19:49:48.379Z,1.02
2023-05-13T19:52:15.496Z,1.20
2023-05-13T19:54:42.433Z,0.88
2023-05-13T19:57:10.744Z,0.88
2023-05-13T19:59:39.408Z,0.88
2023-05-13T20:02:06.568Z,0.88
2023-05-13T20:04:33.916Z,0.90
2023-05-13T20:07:01.099Z,1.20
2023-05-13T20:09:28.093Z,1.10
2023-05-13T20:11:58.309Z,0.90
2023-05-13T20:14:40.874Z,1.08
2023-05-13T20:17:08.390Z,0.93
2023-05-13T20:19:35.332Z,0.82
2023-05-13T20:22:02.606Z,0.80
2023-05-13T20:24:29.564Z,0.95
2023-05-13T20:26:56.528Z,1.00
2023-05-13T20:29:23.454Z,0.90
2023-05-13T20:31:50.481Z,0.90
2023-05-13T20:34:17.570Z,1.20
2023-05-13T20:36:44.660Z,1.00
2023-05-13T20:39:11.572Z,0.80
2023-05-13T20:41:38.504Z,0.90
2023-05-13T20:44:06.439Z,0.80
2023-05-13T20:46:33.481Z,0.80
2023-05-13T20:49:00.537Z,0.90
2023-05-13T20:51:27.473Z,0.90
2023-05-13T20:53:54.472Z,0.60
2023-05-13T20:56:22.038Z,0.80
2023-05-13T20:58:49.720Z,0.73
2023-05-13T21:01:16.684Z,0.90
2023-05-13T21:03:43.703Z,0.70
2023-05-13T21:06:11.340Z,0.90
2023-05-13T21:08:39.992Z,0.70
2023-05-13T21:11:07.280Z,1.05
2023-05-13T21:13:34.216Z,0.75
2023-05-13T21:16:04.220Z,0.90
2023-05-13T21:18:31.616Z,0.77
2023-05-13T21:20:58.646Z,0.77
2023-05-13T21:23:25.729Z,0.77
2023-05-13T21:25:52.692Z,0.88
2023-05-13T21:28:19.652Z,1.00
2023-05-13T21:30:46.682Z,1.08
2023-05-13T21:33:13.714Z,1.20
2023-05-13T21:35:40.695Z,1.02
2023-05-13T21:38:12.022Z,0.90
2023-05-13T21:40:39.464Z,0.90
2023-05-13T21:43:06.472Z,0.93
2023-05-13T21:45:33.420Z,0.88
2023-05-13T21:48:00.438Z,0.90
2023-05-13T21:50:27.614Z,0.77
2023-05-13T21:52:54.991Z,0.77
2023-05-13T21:55:22.106Z,0.75
2023-05-13T21:57:49.357Z,0.90
2023-05-13T22:00:21.325Z,0.80
2023-05-13T22:02:50.556Z,1.15
2023-05-13T22:05:17.745Z,0.80
2023-05-13T22:07:44.720Z,0.80
2023-05-13T22:10:11.930Z,1.00
2023-05-13T22:12:38.848Z,0.85
2023-05-13T22:15:06.703Z,1.00
2023-05-13T22:17:33.732Z,0.90
2023-05-13T22:20:00.859Z,1.00
2023-05-13T22:22:27.900Z,0.80
2023-05-13T22:24:54.881Z,0.80
2023-05-13T22:27:21.849Z,1.00
2023-05-13T22:29:48.825Z,0.95
2023-05-13T22:32:15.825Z,0.90
2023-05-13T22:34:42.877Z,0.90
2023-05-13T22:37:09.997Z,1.10
2023-05-13T22:39:36.959Z,0.90
2023-05-13T22:42:04.084Z,0.80
2023-05-13T22:44:31.046Z,1.10
2023-05-13T22:46:58.007Z,1.10
2023-05-13T22:49:27.608Z,0.77
2023-05-13T22:51:54.835Z,0.93
2023-05-13T22:54:21.755Z,1.00
2023-05-13T22:56:48.683Z,1.15
2023-05-13T22:59:15.758Z,1.30
2023-05-13T23:01:42.783Z,0.95
2023-05-13T23:04:10.005Z,1.10
2023-05-13T23:06:37.151Z,1.00
2023-05-13T23:09:06.121Z,0.85
2023-05-13T23:11:35.664Z,0.90
2023-05-13T23:14:02.733Z,1.08
2023-05-13T23:16:29.761Z,1.10
2023-05-13T23:18:56.792Z,1.23
2023-05-13T23:21:23.760Z,1.20
2023-05-13T23:23:51.961Z,1.10
2023-05-13T23:26:18.967Z,1.17
2023-05-13T23:28:46.049Z,1.05
2023-05-13T23:31:13.041Z,1.13
2023-05-13T23:33:39.984Z,1.05
2023-05-13T23:36:07.067Z,1.00
2023-05-13T23:38:34.569Z,1.13
2023-05-13T23:41:01.552Z,1.20
2023-05-13T23:43:28.470Z,1.10
2023-05-13T23:45:55.479Z,1.10
2023-05-13T23:48:22.482Z,1.00
2023-05-13T23:50:49.408Z,1.10
2023-05-13T23:53:16.386Z,1.10
2023-05-13T23:55:43.404Z,1.10
2023-05-13T23:58:10.431Z,1.63
